sensor_id;sensor_type;location;lat;lon;timestamp;P1;durP1;ratioP1;P2;durP2;ratioP2
45620;SDS011;31345;51.522;10.702;2023-03-14T00:02:09;4.25;;;1.77;;
45620;SDS011;31345;51.522;10.702;2023-03-14T00:04:41;2.70;;;1.80;;
45620;SDS011;31345;51.522;10.702;2023-03-14T00:07:10;3.28;;;1.60;;
45620;SDS011;31345;51.522;10.702;2023-03-14T00:09:44;3.33;;;1.38;;
45620;SDS011;31345;51.522;10.702;2023-03-14T00:12:12;2.85;;;1.27;;
45620;SDS011;31345;51.522;10.702;2023-03-14T00:14:40;4.95;;;1.30;;
45620;SDS011;31345;51.522;10.702;2023-03-14T00:17:13;3.58;;;1.55;;
45620;SDS011;31345;51.522;10.702;2023-03-14T00:19:41;2.25;;;1.38;;
45620;SDS011;31345;51.522;10.702;2023-03-14T00:22:08;2.25;;;1.27;;
45620;SDS011;31345;51.522;10.702;2023-03-14T00:24:35;2.72;;;1.38;;
45620;SDS011;31345;51.522;10.702;2023-03-14T00:27:04;3.28;;;1.30;;
45620;SDS011;31345;51.522;10.702;2023-03-14T00:29:37;2.80;;;1.30;;
45620;SDS011;31345;51.522;10.702;2023-03-14T00:32:04;4.07;;;1.60;;
45620;SDS011;31345;51.522;10.702;2023-03-14T00:34:37;3.42;;;1.65;;
45620;SDS011;31345;51.522;10.702;2023-03-14T00:37:04;2.47;;;1.42;;
45620;SDS011;31345;51.522;10.702;2023-03-14T00:39:37;2.97;;;0.95;;
45620;SDS011;31345;51.522;10.702;2023-03-14T00:42:11;5.40;;;1.55;;
45620;SDS011;31345;51.522;10.702;2023-03-14T00:44:38;3.85;;;1.35;;
45620;SDS011;31345;51.522;10.702;2023-03-14T00:47:06;2.40;;;1.10;;
45620;SDS011;31345;51.522;10.702;2023-03-14T00:49:34;3.47;;;1.10;;
45620;SDS011;31345;51.522;10.702;2023-03-14T00:52:02;2.05;;;1.23;;
45620;SDS011;31345;51.522;10.702;2023-03-14T00:54:34;2.28;;;1.20;;
45620;SDS011;31345;51.522;10.702;2023-03-14T00:57:02;2.97;;;0.98;;
45620;SDS011;31345;51.522;10.702;2023-03-14T00:59:36;2.05;;;1.08;;
45620;SDS011;31345;51.522;10.702;2023-03-14T01:02:08;3.80;;;1.20;;
45620;SDS011;31345;51.522;10.702;2023-03-14T01:04:36;2.10;;;1.20;;
45620;SDS011;31345;51.522;10.702;2023-03-14T01:07:05;2.35;;;1.00;;
45620;SDS011;31345;51.522;10.702;2023-03-14T01:09:32;1.73;;;0.90;;
45620;SDS011;31345;51.522;10.702;2023-03-14T01:12:07;2.00;;;0.90;;
45620;SDS011;31345;51.522;10.702;2023-03-14T01:14:35;1.92;;;1.00;;
45620;SDS011;31345;51.522;10.702;2023-03-14T01:17:04;2.67;;;1.48;;
45620;SDS011;31345;51.522;10.702;2023-03-14T01:19:36;2.10;;;0.98;;
45620;SDS011;31345;51.522;10.702;2023-03-14T01:22:04;1.92;;;0.98;;
45620;SDS011;31345;51.522;10.702;2023-03-14T01:24:31;2.03;;;1.00;;
45620;SDS011;31345;51.522;10.702;2023-03-14T01:27:04;1.40;;;0.75;;
45620;SDS011;31345;51.522;10.702;2023-03-14T01:29:38;1.70;;;0.90;;
45620;SDS011;31345;51.522;10.702;2023-03-14T01:32:05;3.90;;;1.15;;
45620;SDS011;31345;51.522;10.702;2023-03-14T01:34:38;1.27;;;0.77;;
45620;SDS011;31345;51.522;10.702;2023-03-14T01:37:11;2.15;;;1.10;;
45620;SDS011;31345;51.522;10.702;2023-03-14T01:39:46;2.67;;;1.15;;
45620;SDS011;31345;51.522;10.702;2023-03-14T01:42:18;1.42;;;1.05;;
45620;SDS011;31345;51.522;10.702;2023-03-14T01:44:51;3.13;;;1.00;;
45620;SDS011;31345;51.522;10.702;2023-03-14T01:47:25;2.55;;;0.93;;
45620;SDS011;31345;51.522;10.702;2023-03-14T01:49:59;3.45;;;1.00;;
45620;SDS011;31345;51.522;10.702;2023-03-14T01:52:31;1.75;;;1.10;;
45620;SDS011;31345;51.522;10.702;2023-03-14T01:55:03;2.47;;;1.30;;
45620;SDS011;31345;51.522;10.702;2023-03-14T01:57:35;2.08;;;0.98;;
45620;SDS011;31345;51.522;10.702;2023-03-14T02:00:12;2.78;;;1.30;;
45620;SDS011;31345;51.522;10.702;2023-03-14T02:02:48;2.08;;;1.00;;
45620;SDS011;31345;51.522;10.702;2023-03-14T02:05:25;2.88;;;1.05;;
45620;SDS011;31345;51.522;10.702;2023-03-14T02:08:05;2.55;;;1.02;;
45620;SDS011;31345;51.522;10.702;2023-03-14T02:10:47;2.83;;;1.23;;
45620;SDS011;31345;51.522;10.702;2023-03-14T02:13:26;4.50;;;1.10;;
45620;SDS011;31345;51.522;10.702;2023-03-14T02:16:14;1.75;;;1.10;;
45620;SDS011;31345;51.522;10.702;2023-03-14T02:18:52;3.15;;;1.45;;
45620;SDS011;31345;51.522;10.702;2023-03-14T02:21:43;2.15;;;1.17;;
45620;SDS011;31345;51.522;10.702;2023-03-14T02:24:27;2.33;;;1.20;;
45620;SDS011;31345;51.522;10.702;2023-03-14T02:27:09;2.55;;;1.20;;
45620;SDS011;31345;51.522;10.702;2023-03-14T02:29:45;2.90;;;1.40;;
45620;SDS011;31345;51.522;10.702;2023-03-14T02:32:24;2.08;;;1.30;;
45620;SDS011;31345;51.522;10.702;2023-03-14T02:34:53;4.13;;;1.38;;
45620;SDS011;31345;51.522;10.702;2023-03-14T02:37:27;4.05;;;1.80;;
45620;SDS011;31345;51.522;10.702;2023-03-14T02:40:05;2.78;;;1.15;;
45620;SDS011;31345;51.522;10.702;2023-03-14T02:42:41;4.15;;;1.23;;
45620;SDS011;31345;51.522;10.702;2023-03-14T02:45:33;4.20;;;1.58;;
45620;SDS011;31345;51.522;10.702;2023-03-14T02:48:14;3.33;;;1.70;;
45620;SDS011;31345;51.522;10.702;2023-03-14T02:50:46;3.53;;;1.40;;
45620;SDS011;31345;51.522;10.702;2023-03-14T02:53:20;6.20;;;1.70;;
45620;SDS011;31345;51.522;10.702;2023-03-14T02:55:58;3.40;;;1.40;;
45620;SDS011;31345;51.522;10.702;2023-03-14T02:58:28;3.72;;;1.70;;
45620;SDS011;31345;51.522;10.702;2023-03-14T03:01:08;4.18;;;1.83;;
45620;SDS011;31345;51.522;10.702;2023-03-14T03:03:42;3.75;;;1.70;;
45620;SDS011;31345;51.522;10.702;2023-03-14T03:06:10;6.70;;;1.77;;
45620;SDS011;31345;51.522;10.702;2023-03-14T03:08:43;5.43;;;2.42;;
45620;SDS011;31345;51.522;10.702;2023-03-14T03:11:15;3.50;;;1.67;;
45620;SDS011;31345;51.522;10.702;2023-03-14T03:13:44;5.60;;;1.60;;
45620;SDS011;31345;51.522;10.702;2023-03-14T03:16:18;3.50;;;1.80;;
45620;SDS011;31345;51.522;10.702;2023-03-14T03:18:46;4.78;;;1.88;;
45620;SDS011;31345;51.522;10.702;2023-03-14T03:21:19;3.55;;;1.88;;
45620;SDS011;31345;51.522;10.702;2023-03-14T03:23:54;8.02;;;2.03;;
45620;SDS011;31345;51.522;10.702;2023-03-14T03:26:21;5.53;;;1.80;;
45620;SDS011;31345;51.522;10.702;2023-03-14T03:28:55;5.35;;;1.95;;
45620;SDS011;31345;51.522;10.702;2023-03-14T03:31:23;4.78;;;1.60;;
45620;SDS011;31345;51.522;10.702;2023-03-14T03:33:51;6.55;;;2.33;;
45620;SDS011;31345;51.522;10.702;2023-03-14T03:36:20;4.95;;;1.80;;
45620;SDS011;31345;51.522;10.702;2023-03-14T03:38:48;4.15;;;2.03;;
45620;SDS011;31345;51.522;10.702;2023-03-14T03:41:21;6.55;;;1.83;;
45620;SDS011;31345;51.522;10.702;2023-03-14T03:43:50;5.70;;;1.83;;
45620;SDS011;31345;51.522;10.702;2023-03-14T03:46:24;6.93;;;2.30;;
45620;SDS011;31345;51.522;10.702;2023-03-14T03:51:33;6.80;;;2.28;;
45620;SDS011;31345;51.522;10.702;2023-03-14T03:54:14;5.10;;;2.05;;
45620;SDS011;31345;51.522;10.702;2023-03-14T03:56:45;4.53;;;2.13;;
45620;SDS011;31345;51.522;10.702;2023-03-14T03:59:26;6.32;;;1.90;;
45620;SDS011;31345;51.522;10.702;2023-03-14T04:02:10;3.42;;;1.70;;
45620;SDS011;31345;51.522;10.702;2023-03-14T04:04:43;8.38;;;1.88;;
45620;SDS011;31345;51.522;10.702;2023-03-14T04:07:13;7.53;;;2.10;;
45620;SDS011;31345;51.522;10.702;2023-03-14T04:09:43;6.15;;;2.13;;
45620;SDS011;31345;51.522;10.702;2023-03-14T04:12:34;8.52;;;2.50;;
45620;SDS011;31345;51.522;10.702;2023-03-14T04:15:24;5.40;;;1.60;;
45620;SDS011;31345;51.522;10.702;2023-03-14T04:17:57;3.78;;;1.80;;
45620;SDS011;31345;51.522;10.702;2023-03-14T04:20:38;6.78;;;2.03;;
45620;SDS011;31345;51.522;10.702;2023-03-14T04:23:19;6.90;;;1.85;;
45620;SDS011;31345;51.522;10.702;2023-03-14T04:26:04;4.22;;;1.60;;
45620;SDS011;31345;51.522;10.702;2023-03-14T04:28:38;6.97;;;2.25;;
45620;SDS011;31345;51.522;10.702;2023-03-14T04:31:16;8.00;;;1.98;;
45620;SDS011;31345;51.522;10.702;2023-03-14T04:33:53;7.65;;;2.10;;
45620;SDS011;31345;51.522;10.702;2023-03-14T04:36:31;4.30;;;1.90;;
45620;SDS011;31345;51.522;10.702;2023-03-14T04:39:09;6.25;;;1.90;;
45620;SDS011;31345;51.522;10.702;2023-03-14T04:41:43;6.78;;;1.83;;
45620;SDS011;31345;51.522;10.702;2023-03-14T04:44:17;6.53;;;1.83;;
45620;SDS011;31345;51.522;10.702;2023-03-14T04:46:50;3.42;;;1.67;;
45620;SDS011;31345;51.522;10.702;2023-03-14T04:49:32;5.30;;;1.80;;
45620;SDS011;31345;51.522;10.702;2023-03-14T04:54:46;5.18;;;1.70;;
45620;SDS011;31345;51.522;10.702;2023-03-14T04:57:17;5.35;;;1.80;;
45620;SDS011;31345;51.522;10.702;2023-03-14T04:59:49;7.38;;;1.45;;
45620;SDS011;31345;51.522;10.702;2023-03-14T05:02:39;4.97;;;1.80;;
45620;SDS011;31345;51.522;10.702;2023-03-14T05:05:31;4.80;;;1.67;;
45620;SDS011;31345;51.522;10.702;2023-03-14T05:08:17;3.70;;;1.33;;
45620;SDS011;31345;51.522;10.702;2023-03-14T05:11:10;5.00;;;2.15;;
45620;SDS011;31345;51.522;10.702;2023-03-14T05:14:14;4.82;;;1.70;;
45620;SDS011;31345;51.522;10.702;2023-03-14T05:17:05;7.03;;;1.80;;
45620;SDS011;31345;51.522;10.702;2023-03-14T05:19:48;7.10;;;1.77;;
45620;SDS011;31345;51.522;10.702;2023-03-14T05:22:49;3.58;;;1.63;;
45620;SDS011;31345;51.522;10.702;2023-03-14T05:25:39;4.93;;;1.88;;
45620;SDS011;31345;51.522;10.702;2023-03-14T05:28:45;4.22;;;1.27;;
45620;SDS011;31345;51.522;10.702;2023-03-14T05:32:00;3.45;;;1.40;;
45620;SDS011;31345;51.522;10.702;2023-03-14T05:35:00;2.83;;;1.52;;
45620;SDS011;31345;51.522;10.702;2023-03-14T05:37:40;5.18;;;2.10;;
45620;SDS011;31345;51.522;10.702;2023-03-14T05:43:54;6.75;;;1.88;;
45620;SDS011;31345;51.522;10.702;2023-03-14T05:46:34;5.15;;;1.85;;
45620;SDS011;31345;51.522;10.702;2023-03-14T05:49:28;7.03;;;1.80;;
45620;SDS011;31345;51.522;10.702;2023-03-14T05:52:29;5.30;;;1.65;;
45620;SDS011;31345;51.522;10.702;2023-03-14T05:55:37;4.38;;;1.20;;
45620;SDS011;31345;51.522;10.702;2023-03-14T05:58:14;6.10;;;1.75;;
45620;SDS011;31345;51.522;10.702;2023-03-14T06:01:08;6.60;;;1.98;;
45620;SDS011;31345;51.522;10.702;2023-03-14T06:03:52;6.30;;;1.80;;
45620;SDS011;31345;51.522;10.702;2023-03-14T06:06:21;8.18;;;1.50;;
45620;SDS011;31345;51.522;10.702;2023-03-14T06:08:49;2.85;;;1.23;;
45620;SDS011;31345;51.522;10.702;2023-03-14T06:11:30;4.65;;;1.63;;
45620;SDS011;31345;51.522;10.702;2023-03-14T06:13:58;5.03;;;1.75;;
45620;SDS011;31345;51.522;10.702;2023-03-14T06:16:36;5.57;;;1.48;;
45620;SDS011;31345;51.522;10.702;2023-03-14T06:19:10;5.18;;;1.75;;
45620;SDS011;31345;51.522;10.702;2023-03-14T06:21:45;3.67;;;1.50;;
45620;SDS011;31345;51.522;10.702;2023-03-14T06:27:29;3.33;;;1.58;;
45620;SDS011;31345;51.522;10.702;2023-03-14T06:29:58;3.45;;;1.27;;
45620;SDS011;31345;51.522;10.702;2023-03-14T06:32:32;4.40;;;1.52;;
45620;SDS011;31345;51.522;10.702;2023-03-14T06:35:15;5.28;;;1.42;;
45620;SDS011;31345;51.522;10.702;2023-03-14T06:37:56;4.35;;;1.38;;
45620;SDS011;31345;51.522;10.702;2023-03-14T06:40:35;6.57;;;1.60;;
45620;SDS011;31345;51.522;10.702;2023-03-14T06:43:14;6.97;;;1.55;;
45620;SDS011;31345;51.522;10.702;2023-03-14T06:45:52;2.67;;;1.08;;
45620;SDS011;31345;51.522;10.702;2023-03-14T06:49:03;2.97;;;1.40;;
45620;SDS011;31345;51.522;10.702;2023-03-14T06:51:39;6.38;;;1.58;;
45620;SDS011;31345;51.522;10.702;2023-03-14T06:54:12;4.85;;;1.10;;
45620;SDS011;31345;51.522;10.702;2023-03-14T06:56:50;5.75;;;1.20;;
45620;SDS011;31345;51.522;10.702;2023-03-14T06:59:24;5.93;;;1.50;;
45620;SDS011;31345;51.522;10.702;2023-03-14T07:01:57;2.60;;;1.10;;
45620;SDS011;31345;51.522;10.702;2023-03-14T07:04:25;3.30;;;1.17;;
45620;SDS011;31345;51.522;10.702;2023-03-14T07:06:58;4.82;;;1.23;;
45620;SDS011;31345;51.522;10.702;2023-03-14T07:09:30;3.10;;;1.02;;
45620;SDS011;31345;51.522;10.702;2023-03-14T07:12:00;2.47;;;1.30;;
45620;SDS011;31345;51.522;10.702;2023-03-14T07:14:30;2.80;;;1.20;;
45620;SDS011;31345;51.522;10.702;2023-03-14T07:16:59;5.87;;;1.33;;
45620;SDS011;31345;51.522;10.702;2023-03-14T07:19:32;6.60;;;1.30;;
45620;SDS011;31345;51.522;10.702;2023-03-14T07:22:05;2.85;;;1.38;;
45620;SDS011;31345;51.522;10.702;2023-03-14T07:24:37;2.83;;;1.30;;
45620;SDS011;31345;51.522;10.702;2023-03-14T07:27:05;3.00;;;1.40;;
45620;SDS011;31345;51.522;10.702;2023-03-14T07:29:34;3.45;;;1.20;;
45620;SDS011;31345;51.522;10.702;2023-03-14T07:32:03;3.13;;;1.40;;
45620;SDS011;31345;51.522;10.702;2023-03-14T07:34:36;5.97;;;1.65;;
45620;SDS011;31345;51.522;10.702;2023-03-14T07:37:09;2.63;;;1.25;;
45620;SDS011;31345;51.522;10.702;2023-03-14T07:39:42;3.00;;;1.20;;
45620;SDS011;31345;51.522;10.702;2023-03-14T07:42:18;5.35;;;1.35;;
45620;SDS011;31345;51.522;10.702;2023-03-14T07:45:11;3.72;;;1.33;;
45620;SDS011;31345;51.522;10.702;2023-03-14T07:47:39;4.97;;;1.88;;
45620;SDS011;31345;51.522;10.702;2023-03-14T07:50:12;4.55;;;1.30;;
45620;SDS011;31345;51.522;10.702;2023-03-14T07:52:44;2.95;;;1.40;;
45620;SDS011;31345;51.522;10.702;2023-03-14T07:55:17;4.05;;;1.50;;
45620;SDS011;31345;51.522;10.702;2023-03-14T07:57:49;4.82;;;1.38;;
45620;SDS011;31345;51.522;10.702;2023-03-14T08:00:19;6.18;;;1.20;;
45620;SDS011;31345;51.522;10.702;2023-03-14T08:02:47;2.70;;;1.20;;
45620;SDS011;31345;51.522;10.702;2023-03-14T08:05:15;2.65;;;1.40;;
45620;SDS011;31345;51.522;10.702;2023-03-14T08:07:43;4.82;;;1.40;;
45620;SDS011;31345;51.522;10.702;2023-03-14T08:10:16;2.65;;;1.30;;
45620;SDS011;31345;51.522;10.702;2023-03-14T08:12:48;4.32;;;1.20;;
45620;SDS011;31345;51.522;10.702;2023-03-14T08:15:22;3.05;;;1.17;;
45620;SDS011;31345;51.522;10.702;2023-03-14T08:17:56;2.15;;;1.10;;
45620;SDS011;31345;51.522;10.702;2023-03-14T08:20:25;2.60;;;0.90;;
45620;SDS011;31345;51.522;10.702;2023-03-14T08:22:55;2.72;;;0.95;;
45620;SDS011;31345;51.522;10.702;2023-03-14T08:25:29;2.72;;;0.93;;
45620;SDS011;31345;51.522;10.702;2023-03-14T08:28:03;3.83;;;0.98;;
45620;SDS011;31345;51.522;10.702;2023-03-14T08:30:37;2.58;;;1.40;;
45620;SDS011;31345;51.522;10.702;2023-03-14T08:33:05;2.85;;;0.95;;
45620;SDS011;31345;51.522;10.702;2023-03-14T08:35:38;1.48;;;0.77;;
45620;SDS011;31345;51.522;10.702;2023-03-14T08:38:11;4.43;;;1.10;;
45620;SDS011;31345;51.522;10.702;2023-03-14T08:40:44;2.35;;;0.98;;
45620;SDS011;31345;51.522;10.702;2023-03-14T08:43:16;3.75;;;1.15;;
45620;SDS011;31345;51.522;10.702;2023-03-14T08:45:50;1.95;;;0.90;;
45620;SDS011;31345;51.522;10.702;2023-03-14T08:48:23;3.33;;;0.95;;
45620;SDS011;31345;51.522;10.702;2023-03-14T08:50:56;3.88;;;1.17;;
45620;SDS011;31345;51.522;10.702;2023-03-14T08:53:29;2.15;;;0.77;;
45620;SDS011;31345;51.522;10.702;2023-03-14T08:56:02;2.35;;;0.77;;
45620;SDS011;31345;51.522;10.702;2023-03-14T08:58:32;3.08;;;0.73;;
45620;SDS011;31345;51.522;10.702;2023-03-14T09:01:07;1.88;;;0.75;;
45620;SDS011;31345;51.522;10.702;2023-03-14T09:03:36;3.47;;;0.90;;
45620;SDS011;31345;51.522;10.702;2023-03-14T09:06:04;2.53;;;0.63;;
45620;SDS011;31345;51.522;10.702;2023-03-14T09:08:34;1.85;;;0.70;;
45620;SDS011;31345;51.522;10.702;2023-03-14T09:11:07;3.10;;;0.93;;
45620;SDS011;31345;51.522;10.702;2023-03-14T09:13:36;3.40;;;0.82;;
45620;SDS011;31345;51.522;10.702;2023-03-14T09:16:10;1.75;;;0.55;;
45620;SDS011;31345;51.522;10.702;2023-03-14T09:18:43;1.15;;;0.70;;
45620;SDS011;31345;51.522;10.702;2023-03-14T09:21:16;2.28;;;0.70;;
45620;SDS011;31345;51.522;10.702;2023-03-14T09:23:43;1.45;;;0.70;;
45620;SDS011;31345;51.522;10.702;2023-03-14T09:26:12;2.50;;;0.80;;
45620;SDS011;31345;51.522;10.702;2023-03-14T09:28:39;1.25;;;0.50;;
45620;SDS011;31345;51.522;10.702;2023-03-14T09:31:14;1.80;;;0.65;;
45620;SDS011;31345;51.522;10.702;2023-03-14T09:33:46;1.77;;;0.60;;
45620;SDS011;31345;51.522;10.702;2023-03-14T09:36:14;1.95;;;0.70;;
45620;SDS011;31345;51.522;10.702;2023-03-14T09:38:42;1.58;;;0.75;;
45620;SDS011;31345;51.522;10.702;2023-03-14T09:41:16;1.08;;;0.50;;
45620;SDS011;31345;51.522;10.702;2023-03-14T09:43:54;0.95;;;0.60;;
45620;SDS011;31345;51.522;10.702;2023-03-14T09:46:30;1.27;;;0.60;;
45620;SDS011;31345;51.522;10.702;2023-03-14T09:49:08;1.38;;;0.63;;
45620;SDS011;31345;51.522;10.702;2023-03-14T09:51:44;1.13;;;0.50;;
45620;SDS011;31345;51.522;10.702;2023-03-14T09:54:17;0.97;;;0.50;;
45620;SDS011;31345;51.522;10.702;2023-03-14T09:56:58;2.05;;;0.50;;
45620;SDS011;31345;51.522;10.702;2023-03-14T09:59:26;1.38;;;0.50;;
45620;SDS011;31345;51.522;10.702;2023-03-14T10:02:10;3.67;;;0.60;;
45620;SDS011;31345;51.522;10.702;2023-03-14T10:04:49;1.30;;;0.63;;
45620;SDS011;31345;51.522;10.702;2023-03-14T10:07:21;1.27;;;0.60;;
45620;SDS011;31345;51.522;10.702;2023-03-14T10:09:54;0.90;;;0.60;;
45620;SDS011;31345;51.522;10.702;2023-03-14T10:12:30;1.67;;;0.50;;
45620;SDS011;31345;51.522;10.702;2023-03-14T10:15:05;2.10;;;0.68;;
45620;SDS011;31345;51.522;10.702;2023-03-14T10:17:40;1.35;;;0.55;;
45620;SDS011;31345;51.522;10.702;2023-03-14T10:20:25;1.92;;;0.70;;
45620;SDS011;31345;51.522;10.702;2023-03-14T10:23:03;1.80;;;0.50;;
45620;SDS011;31345;51.522;10.702;2023-03-14T10:25:34;1.98;;;0.57;;
45620;SDS011;31345;51.522;10.702;2023-03-14T10:28:03;1.67;;;0.77;;
45620;SDS011;31345;51.522;10.702;2023-03-14T10:30:39;0.88;;;0.45;;
45620;SDS011;31345;51.522;10.702;2023-03-14T10:33:21;1.23;;;0.40;;
45620;SDS011;31345;51.522;10.702;2023-03-14T10:35:52;1.27;;;0.60;;
45620;SDS011;31345;51.522;10.702;2023-03-14T10:38:27;2.00;;;0.50;;
45620;SDS011;31345;51.522;10.702;2023-03-14T10:41:01;0.63;;;0.45;;
45620;SDS011;31345;51.522;10.702;2023-03-14T10:43:35;0.75;;;0.30;;
45620;SDS011;31345;51.522;10.702;2023-03-14T10:46:05;2.60;;;0.47;;
45620;SDS011;31345;51.522;10.702;2023-03-14T10:48:58;1.10;;;0.50;;
45620;SDS011;31345;51.522;10.702;2023-03-14T10:51:26;0.93;;;0.55;;
45620;SDS011;31345;51.522;10.702;2023-03-14T10:53:56;1.38;;;0.40;;
45620;SDS011;31345;51.522;10.702;2023-03-14T10:56:33;0.52;;;0.40;;
45620;SDS011;31345;51.522;10.702;2023-03-14T10:59:07;1.75;;;0.70;;
45620;SDS011;31345;51.522;10.702;2023-03-14T11:01:41;1.83;;;0.57;;
45620;SDS011;31345;51.522;10.702;2023-03-14T11:04:23;1.50;;;0.63;;
45620;SDS011;31345;51.522;10.702;2023-03-14T11:07:08;1.45;;;0.50;;
45620;SDS011;31345;51.522;10.702;2023-03-14T11:09:49;0.93;;;0.55;;
45620;SDS011;31345;51.522;10.702;2023-03-14T11:12:33;0.70;;;0.50;;
45620;SDS011;31345;51.522;10.702;2023-03-14T11:15:15;1.00;;;0.50;;
45620;SDS011;31345;51.522;10.702;2023-03-14T11:17:54;0.75;;;0.43;;
45620;SDS011;31345;51.522;10.702;2023-03-14T11:20:41;0.82;;;0.50;;
45620;SDS011;31345;51.522;10.702;2023-03-14T11:23:20;0.95;;;0.52;;
45620;SDS011;31345;51.522;10.702;2023-03-14T11:25:51;0.90;;;0.52;;
45620;SDS011;31345;51.522;10.702;2023-03-14T11:28:26;0.90;;;0.60;;
45620;SDS011;31345;51.522;10.702;2023-03-14T11:31:04;1.88;;;0.52;;
45620;SDS011;31345;51.522;10.702;2023-03-14T11:33:45;2.60;;;0.50;;
45620;SDS011;31345;51.522;10.702;2023-03-14T11:36:24;1.08;;;0.60;;
45620;SDS011;31345;51.522;10.702;2023-03-14T11:39:02;1.48;;;0.60;;
45620;SDS011;31345;51.522;10.702;2023-03-14T11:41:41;0.77;;;0.55;;
45620;SDS011;31345;51.522;10.702;2023-03-14T11:44:17;2.72;;;0.88;;
45620;SDS011;31345;51.522;10.702;2023-03-14T11:46:52;1.80;;;0.57;;
45620;SDS011;31345;51.522;10.702;2023-03-14T11:49:30;1.55;;;0.60;;
45620;SDS011;31345;51.522;10.702;2023-03-14T11:52:12;1.95;;;0.70;;
45620;SDS011;31345;51.522;10.702;2023-03-14T11:54:45;1.10;;;0.70;;
45620;SDS011;31345;51.522;10.702;2023-03-14T11:57:22;0.82;;;0.47;;
45620;SDS011;31345;51.522;10.702;2023-03-14T11:59:57;1.33;;;0.70;;
45620;SDS011;31345;51.522;10.702;2023-03-14T12:02:45;1.02;;;0.43;;
45620;SDS011;31345;51.522;10.702;2023-03-14T12:05:37;0.98;;;0.50;;
45620;SDS011;31345;51.522;10.702;2023-03-14T12:08:25;0.73;;;0.40;;
45620;SDS011;31345;51.522;10.702;2023-03-14T12:11:12;0.90;;;0.50;;
45620;SDS011;31345;51.522;10.702;2023-03-14T12:13:50;0.77;;;0.50;;
45620;SDS011;31345;51.522;10.702;2023-03-14T12:16:24;0.93;;;0.50;;
45620;SDS011;31345;51.522;10.702;2023-03-14T12:22:13;1.33;;;0.50;;
45620;SDS011;31345;51.522;10.702;2023-03-14T12:25:00;1.10;;;0.50;;
45620;SDS011;31345;51.522;10.702;2023-03-14T12:27:46;1.02;;;0.55;;
45620;SDS011;31345;51.522;10.702;2023-03-14T12:30:34;1.25;;;0.60;;
45620;SDS011;31345;51.522;10.702;2023-03-14T12:36:04;2.58;;;0.68;;
45620;SDS011;31345;51.522;10.702;2023-03-14T12:38:55;2.72;;;0.60;;
45620;SDS011;31345;51.522;10.702;2023-03-14T12:41:38;1.77;;;0.63;;
45620;SDS011;31345;51.522;10.702;2023-03-14T12:50:26;1.45;;;0.65;;
45620;SDS011;31345;51.522;10.702;2023-03-14T12:56:26;3.17;;;0.60;;
45620;SDS011;31345;51.522;10.702;2023-03-14T13:05:09;1.10;;;0.68;;
45620;SDS011;31345;51.522;10.702;2023-03-14T13:10:42;3.30;;;0.70;;
45620;SDS011;31345;51.522;10.702;2023-03-14T13:13:16;1.77;;;0.63;;
45620;SDS011;31345;51.522;10.702;2023-03-14T13:15:49;2.47;;;1.00;;
45620;SDS011;31345;51.522;10.702;2023-03-14T13:18:26;2.28;;;0.80;;
45620;SDS011;31345;51.522;10.702;2023-03-14T13:21:03;2.65;;;0.80;;
45620;SDS011;31345;51.522;10.702;2023-03-14T13:23:38;3.08;;;0.50;;
45620;SDS011;31345;51.522;10.702;2023-03-14T13:26:13;1.70;;;0.57;;
45620;SDS011;31345;51.522;10.702;2023-03-14T13:28:41;5.15;;;0.70;;
45620;SDS011;31345;51.522;10.702;2023-03-14T13:31:18;2.35;;;0.50;;
45620;SDS011;31345;51.522;10.702;2023-03-14T13:33:57;1.38;;;0.50;;
45620;SDS011;31345;51.522;10.702;2023-03-14T13:36:26;0.88;;;0.50;;
45620;SDS011;31345;51.522;10.702;2023-03-14T13:38:57;0.98;;;0.50;;
45620;SDS011;31345;51.522;10.702;2023-03-14T13:41:32;0.52;;;0.40;;
45620;SDS011;31345;51.522;10.702;2023-03-14T13:44:02;0.88;;;0.50;;
45620;SDS011;31345;51.522;10.702;2023-03-14T13:46:40;1.13;;;0.40;;
45620;SDS011;31345;51.522;10.702;2023-03-14T13:49:16;0.80;;;0.32;;
45620;SDS011;31345;51.522;10.702;2023-03-14T13:51:53;1.65;;;0.50;;
45620;SDS011;31345;51.522;10.702;2023-03-14T13:54:21;1.70;;;0.65;;
45620;SDS011;31345;51.522;10.702;2023-03-14T13:56:58;0.75;;;0.63;;
45620;SDS011;31345;51.522;10.702;2023-03-14T13:59:32;0.45;;;0.45;;
45620;SDS011;31345;51.522;10.702;2023-03-14T14:02:09;1.10;;;0.40;;
45620;SDS011;31345;51.522;10.702;2023-03-14T14:04:45;0.60;;;0.52;;
45620;SDS011;31345;51.522;10.702;2023-03-14T14:07:19;0.50;;;0.50;;
45620;SDS011;31345;51.522;10.702;2023-03-14T14:09:47;0.70;;;0.60;;
45620;SDS011;31345;51.522;10.702;2023-03-14T14:12:17;0.68;;;0.68;;
45620;SDS011;31345;51.522;10.702;2023-03-14T14:14:56;1.38;;;0.65;;
45620;SDS011;31345;51.522;10.702;2023-03-14T14:17:34;0.80;;;0.50;;
45620;SDS011;31345;51.522;10.702;2023-03-14T14:20:05;0.30;;;0.30;;
45620;SDS011;31345;51.522;10.702;2023-03-14T14:22:41;0.30;;;0.30;;
45620;SDS011;31345;51.522;10.702;2023-03-14T14:25:14;0.30;;;0.30;;
45620;SDS011;31345;51.522;10.702;2023-03-14T14:27:47;0.30;;;0.30;;
45620;SDS011;31345;51.522;10.702;2023-03-14T14:30:26;0.40;;;0.40;;
45620;SDS011;31345;51.522;10.702;2023-03-14T14:33:16;0.52;;;0.50;;
45620;SDS011;31345;51.522;10.702;2023-03-14T14:35:51;0.60;;;0.35;;
45620;SDS011;31345;51.522;10.702;2023-03-14T14:38:21;0.98;;;0.50;;
45620;SDS011;31345;51.522;10.702;2023-03-14T14:40:54;0.60;;;0.60;;
45620;SDS011;31345;51.522;10.702;2023-03-14T14:43:27;0.40;;;0.40;;
45620;SDS011;31345;51.522;10.702;2023-03-14T14:46:05;0.40;;;0.40;;
45620;SDS011;31345;51.522;10.702;2023-03-14T14:48:40;0.40;;;0.40;;
45620;SDS011;31345;51.522;10.702;2023-03-14T14:51:21;0.75;;;0.60;;
45620;SDS011;31345;51.522;10.702;2023-03-14T14:54:10;2.27;;;0.60;;
45620;SDS011;31345;51.522;10.702;2023-03-14T14:56:40;1.43;;;0.50;;
45620;SDS011;31345;51.522;10.702;2023-03-14T14:59:17;1.60;;;0.60;;
45620;SDS011;31345;51.522;10.702;2023-03-14T15:01:56;2.07;;;0.60;;
45620;SDS011;31345;51.522;10.702;2023-03-14T15:04:26;1.37;;;0.60;;
45620;SDS011;31345;51.522;10.702;2023-03-14T15:07:01;5.97;;;0.93;;
45620;SDS011;31345;51.522;10.702;2023-03-14T15:09:29;5.30;;;0.90;;
45620;SDS011;31345;51.522;10.702;2023-03-14T15:11:57;8.03;;;1.10;;
45620;SDS011;31345;51.522;10.702;2023-03-14T15:14:29;4.30;;;0.90;;
45620;SDS011;31345;51.522;10.702;2023-03-14T15:16:57;2.27;;;0.97;;
45620;SDS011;31345;51.522;10.702;2023-03-14T15:19:26;2.30;;;0.90;;
45620;SDS011;31345;51.522;10.702;2023-03-14T15:21:55;4.05;;;0.90;;
45620;SDS011;31345;51.522;10.702;2023-03-14T15:24:28;1.87;;;1.03;;
45620;SDS011;31345;51.522;10.702;2023-03-14T15:26:55;1.40;;;0.80;;
45620;SDS011;31345;51.522;10.702;2023-03-14T15:29:23;4.53;;;1.00;;
45620;SDS011;31345;51.522;10.702;2023-03-14T15:31:55;2.30;;;0.77;;
45620;SDS011;31345;51.522;10.702;2023-03-14T15:34:23;2.10;;;1.17;;
45620;SDS011;31345;51.522;10.702;2023-03-14T15:36:52;4.20;;;1.30;;
45620;SDS011;31345;51.522;10.702;2023-03-14T15:39:19;8.40;;;1.27;;
45620;SDS011;31345;51.522;10.702;2023-03-14T15:41:52;2.60;;;1.40;;
45620;SDS011;31345;51.522;10.702;2023-03-14T15:44:19;4.87;;;1.63;;
45620;SDS011;31345;51.522;10.702;2023-03-14T15:46:53;3.90;;;1.83;;
45620;SDS011;31345;51.522;10.702;2023-03-14T15:49:27;6.83;;;1.80;;
45620;SDS011;31345;51.522;10.702;2023-03-14T15:52:01;6.17;;;2.30;;
45620;SDS011;31345;51.522;10.702;2023-03-14T15:54:34;5.63;;;1.83;;
45620;SDS011;31345;51.522;10.702;2023-03-14T15:57:02;5.83;;;2.00;;
45620;SDS011;31345;51.522;10.702;2023-03-14T15:59:34;11.97;;;2.97;;